createdAt,value
2023-05-09T00:00:46.499Z,99384.13
2023-05-09T00:03:14.275Z,99381.38
2023-05-09T00:05:41.816Z,99379.09
2023-05-09T00:08:08.522Z,99381.47
2023-05-09T00:10:35.129Z,99379.53
2023-05-09T00:13:01.753Z,99382.94
2023-05-09T00:15:28.756Z,99381.81
2023-05-09T00:17:55.318Z,99374.75
2023-05-09T00:20:22.058Z,99374.47
2023-05-09T00:22:48.636Z,99370.13
2023-05-09T00:25:15.336Z,99364.69
2023-05-09T00:27:41.940Z,99362.75
2023-05-09T00:30:09.060Z,99358.38
2023-05-09T00:32:37.102Z,99359.84
2023-05-09T00:35:05.210Z,99361.94
2023-05-09T00:37:31.731Z,99360.66
2023-05-09T00:39:58.199Z,99355.47
2023-05-09T00:42:24.860Z,99353.28
2023-05-09T00:44:51.367Z,99350.16
2023-05-09T00:47:18.158Z,99344.91
2023-05-09T00:49:44.766Z,99342.94
2023-05-09T00:52:11.420Z,99336.16
2023-05-09T00:54:38.039Z,99337.63
2023-05-09T00:57:04.677Z,99334.03
2023-05-09T00:59:31.367Z,99325.16
2023-05-09T01:01:57.909Z,99326.38
2023-05-09T01:04:24.856Z,99316.03
2023-05-09T01:07:30.238Z,99318.28
2023-05-09T01:10:12.001Z,99305.91
2023-05-09T01:12:52.330Z,99317.63
2023-05-09T01:15:32.666Z,99300.88
2023-05-09T01:18:27.743Z,99309.97
2023-05-09T01:21:07.616Z,99306.41
2023-05-09T01:24:23.371Z,99298.28
2023-05-09T01:27:13.068Z,99297.94
2023-05-09T01:29:48.051Z,99290.63
2023-05-09T01:32:22.773Z,99293.97
2023-05-09T01:34:54.338Z,99284.84
2023-05-09T01:37:30.591Z,99288.44
2023-05-09T01:40:08.203Z,99286.78
2023-05-09T01:42:45.390Z,99286.78
2023-05-09T01:45:15.686Z,99282.63
2023-05-09T01:47:44.654Z,99287.38
2023-05-09T01:50:13.060Z,99292.13
2023-05-09T01:52:43.336Z,99287.25
2023-05-09T01:55:13.287Z,99289.47
2023-05-09T01:57:43.009Z,99297.19
2023-05-09T02:00:13.711Z,99292.13
2023-05-09T02:02:41.400Z,99292.41
2023-05-09T02:05:11.776Z,99291.66
2023-05-09T02:07:41.995Z,99292.97
2023-05-09T02:10:11.452Z,99290.91
2023-05-09T02:12:38.752Z,99284.59
2023-05-09T02:15:07.257Z,99290.66
2023-05-09T02:17:33.749Z,99284.59
2023-05-09T02:20:00.419Z,99287.97
2023-05-09T02:22:28.289Z,99277.47
2023-05-09T02:24:55.281Z,99271.28
2023-05-09T02:27:22.699Z,99269.38
2023-05-09T02:29:57.499Z,99279.25
2023-05-09T02:32:31.600Z,99272.22
2023-05-09T02:35:01.859Z,99265.13
2023-05-09T02:37:29.257Z,99261.78
2023-05-09T02:39:56.560Z,99265.69
2023-05-09T02:42:28.694Z,99266.00
2023-05-09T02:44:56.423Z,99259.16
2023-05-09T02:47:23.422Z,99264.69
2023-05-09T02:49:49.998Z,99259.22
2023-05-09T02:52:16.599Z,99256.88
2023-05-09T02:54:43.126Z,99260.19
2023-05-09T02:57:09.734Z,99254.91
2023-05-09T02:59:36.506Z,99259.44
2023-05-09T03:02:03.060Z,99259.38
2023-05-09T03:04:29.618Z,99250.88
2023-05-09T03:06:56.218Z,99247.94
2023-05-09T03:09:22.729Z,99255.66
2023-05-09T03:11:50.421Z,99259.88
2023-05-09T03:14:16.989Z,99250.13
2023-05-09T03:16:43.512Z,99247.63
2023-05-09T03:19:11.235Z,99240.31
2023-05-09T03:21:37.787Z,99233.63
2023-05-09T03:24:05.992Z,99245.44
2023-05-09T03:26:32.491Z,99234.41
2023-05-09T03:28:59.120Z,99240.63
2023-05-09T03:31:35.644Z,99237.16
2023-05-09T03:34:02.214Z,99226.97
2023-05-09T03:36:28.882Z,99216.72
2023-05-09T03:38:55.386Z,99219.81
2023-05-09T03:41:26.708Z,99211.66
2023-05-09T03:43:53.218Z,99211.25
2023-05-09T03:46:19.748Z,99207.25
2023-05-09T03:48:46.258Z,99204.00
2023-05-09T03:51:12.779Z,99212.81
2023-05-09T03:53:39.426Z,99212.88
2023-05-09T03:56:09.594Z,99203.00
2023-05-09T03:58:36.280Z,99207.78
2023-05-09T04:01:05.883Z,99209.75
2023-05-09T04:03:33.186Z,99210.88
2023-05-09T04:06:00.179Z,99210.06
2023-05-09T04:08:27.428Z,99209.03
2023-05-09T04:10:54.013Z,99204.88
2023-05-09T04:13:20.543Z,99202.03
2023-05-09T04:15:47.081Z,99201.88
2023-05-09T04:18:13.684Z,99200.31
2023-05-09T04:20:40.354Z,99202.59
2023-05-09T04:23:07.045Z,99201.03
2023-05-09T04:25:34.444Z,99202.28
2023-05-09T04:28:09.059Z,99197.09
2023-05-09T04:30:35.575Z,99206.19
2023-05-09T04:33:02.155Z,99205.78
2023-05-09T04:35:28.596Z,99200.13
2023-05-09T04:37:55.171Z,99200.84
2023-05-09T04:40:21.692Z,99189.53
2023-05-09T04:42:48.173Z,99194.47
2023-05-09T04:45:16.911Z,99178.38
2023-05-09T04:47:44.043Z,99183.75
2023-05-09T04:50:11.186Z,99186.31
2023-05-09T04:52:37.887Z,99177.59
2023-05-09T04:55:04.775Z,99176.16
2023-05-09T04:57:31.205Z,99177.28
2023-05-09T04:59:57.804Z,99177.75
2023-05-09T05:02:25.167Z,99173.91
2023-05-09T05:04:56.105Z,99173.25
2023-05-09T05:07:26.674Z,99162.09
2023-05-09T05:09:53.134Z,99167.53
2023-05-09T05:12:20.573Z,99166.72
2023-05-09T05:14:47.074Z,99172.06
2023-05-09T05:17:20.323Z,99164.44
2023-05-09T05:19:49.443Z,99165.41
2023-05-09T05:22:16.016Z,99165.94
2023-05-09T05:24:46.624Z,99155.75
2023-05-09T05:27:16.213Z,99156.94
2023-05-09T05:29:42.727Z,99156.25
2023-05-09T05:32:10.630Z,99160.44
2023-05-09T05:34:39.304Z,99163.03
2023-05-09T05:37:05.907Z,99166.44
2023-05-09T05:39:32.465Z,99159.66
2023-05-09T05:41:58.988Z,99160.78
2023-05-09T05:44:25.454Z,99154.31
2023-05-09T05:47:01.578Z,99157.03
2023-05-09T05:49:30.121Z,99148.41
2023-05-09T05:52:00.745Z,99160.44
2023-05-09T05:54:27.246Z,99151.66
2023-05-09T05:56:53.681Z,99158.69
2023-05-09T05:59:20.099Z,99152.63
2023-05-09T06:01:46.724Z,99148.28
2023-05-09T06:04:13.343Z,99153.25
2023-05-09T06:06:40.552Z,99149.56
2023-05-09T06:09:07.080Z,99149.66
2023-05-09T06:11:33.554Z,99146.22
2023-05-09T06:14:00.143Z,99143.88
2023-05-09T06:16:26.624Z,99143.97
2023-05-09T06:18:55.730Z,99134.31
2023-05-09T06:21:23.345Z,99141.50
2023-05-09T06:24:01.994Z,99134.59
2023-05-09T06:26:35.196Z,99124.38
2023-05-09T06:29:01.908Z,99126.63
2023-05-09T06:31:28.672Z,99118.09
2023-05-09T06:33:55.342Z,99129.00
2023-05-09T06:36:21.842Z,99123.78
2023-05-09T06:38:48.356Z,99107.19
2023-05-09T06:41:14.857Z,99104.38
2023-05-09T06:43:41.415Z,99099.50
2023-05-09T06:46:08.122Z,99094.22
2023-05-09T06:48:34.674Z,99108.31
2023-05-09T06:51:01.181Z,99099.25
2023-05-09T06:53:27.650Z,99087.88
2023-05-09T06:55:54.157Z,99096.97
2023-05-09T06:58:21.454Z,99099.38
2023-05-09T07:00:48.663Z,99092.97
2023-05-09T07:03:15.828Z,99084.09
2023-05-09T07:05:42.344Z,99093.06
2023-05-09T07:08:08.825Z,99087.03
2023-05-09T07:10:35.637Z,99071.75
2023-05-09T07:13:02.258Z,99073.59
2023-05-09T07:15:40.484Z,99066.06
2023-05-09T07:18:09.320Z,99065.38
2023-05-09T07:20:35.945Z,99060.53
2023-05-09T07:23:05.833Z,99050.34
2023-05-09T07:25:32.763Z,99054.00
2023-05-09T07:27:59.250Z,99053.66
2023-05-09T07:30:25.804Z,99051.41
2023-05-09T07:32:52.859Z,99049.91
2023-05-09T07:35:27.901Z,99046.25
2023-05-09T07:37:57.864Z,99040.75
2023-05-09T07:40:25.327Z,99034.97
2023-05-09T07:42:54.067Z,99034.59
2023-05-09T07:45:22.799Z,99039.91
2023-05-09T07:47:50.916Z,99031.84
2023-05-09T07:50:17.632Z,99023.47
2023-05-09T07:52:47.037Z,99019.16
2023-05-09T07:55:13.858Z,99019.63
2023-05-09T07:57:40.975Z,99019.16
2023-05-09T08:00:09.032Z,99017.06
2023-05-09T08:02:36.126Z,99012.06
2023-05-09T08:05:03.227Z,99008.69
2023-05-09T08:07:29.891Z,99005.38
2023-05-09T08:09:56.581Z,99008.53
2023-05-09T08:12:23.367Z,98992.34
2023-05-09T08:14:49.882Z,98996.59
2023-05-09T08:17:19.254Z,98988.78
2023-05-09T08:19:45.998Z,98985.81
2023-05-09T08:22:20.655Z,98987.16
2023-05-09T08:24:47.913Z,98985.75
2023-05-09T08:27:15.719Z,98984.84
2023-05-09T08:29:43.651Z,98969.53
2023-05-09T08:32:10.237Z,98979.38
2023-05-09T08:34:37.186Z,98968.75
2023-05-09T08:37:04.911Z,98979.66
2023-05-09T08:39:35.726Z,98975.78
2023-05-09T08:42:04.706Z,98974.97
2023-05-09T08:44:32.243Z,98973.38
2023-05-09T08:47:02.577Z,98961.88
2023-05-09T08:49:30.473Z,98962.59
2023-05-09T08:51:57.789Z,98955.22
2023-05-09T08:54:25.140Z,98954.81
2023-05-09T08:56:52.241Z,98951.94
2023-05-09T08:59:22.439Z,98954.09
2023-05-09T09:01:49.968Z,98948.41
2023-05-09T09:04:18.196Z,98950.94
2023-05-09T09:06:46.619Z,98952.78
2023-05-09T09:09:15.332Z,98944.78
2023-05-09T09:11:44.492Z,98938.75
2023-05-09T09:14:16.722Z,98934.13
2023-05-09T09:16:48.867Z,98936.94
2023-05-09T09:19:20.071Z,98922.94
2023-05-09T09:21:49.761Z,98922.94
2023-05-09T09:24:23.306Z,98925.22
2023-05-09T09:26:51.794Z,98921.63
2023-05-09T09:29:20.972Z,98919.38
2023-05-09T09:31:57.376Z,98909.66
2023-05-09T09:34:23.931Z,98908.25
2023-05-09T09:36:50.904Z,98906.03
2023-05-09T09:39:17.563Z,98907.22
2023-05-09T09:41:45.227Z,98900.53
2023-05-09T09:44:17.732Z,98892.84
2023-05-09T09:46:50.755Z,98897.78
2023-05-09T09:49:21.792Z,98895.81
2023-05-09T09:51:55.663Z,98887.94
2023-05-09T09:54:29.583Z,98887.59
2023-05-09T09:56:56.604Z,98882.44
2023-05-09T09:59:27.230Z,98883.06
2023-05-09T10:01:59.300Z,98879.66
2023-05-09T10:04:31.718Z,98873.91
2023-05-09T10:07:06.169Z,98869.31
2023-05-09T10:09:39.489Z,98868.09
2023-05-09T10:12:08.776Z,98853.22
2023-05-09T10:14:41.657Z,98856.22
2023-05-09T10:17:14.027Z,98847.38
2023-05-09T10:19:47.524Z,98854.19
2023-05-09T10:22:19.249Z,98853.63
2023-05-09T10:25:03.355Z,98855.00
2023-05-09T10:27:35.652Z,98860.03
2023-05-09T10:30:08.652Z,98858.78
2023-05-09T10:32:50.493Z,98844.94
2023-05-09T10:35:25.114Z,98852.41
2023-05-09T10:37:57.634Z,98847.75
2023-05-09T10:40:24.514Z,98843.66
2023-05-09T10:42:57.825Z,98838.59
2023-05-09T10:45:24.927Z,98834.09
2023-05-09T10:47:53.849Z,98832.63
2023-05-09T10:50:21.462Z,98831.22
2023-05-09T10:53:04.914Z,98842.84
2023-05-09T10:55:47.315Z,98828.84
2023-05-09T10:58:23.440Z,98825.22
2023-05-09T11:00:53.488Z,98825.06
2023-05-09T11:03:21.628Z,98825.38
2023-05-09T11:05:56.355Z,98820.41
2023-05-09T11:08:34.390Z,98818.16
2023-05-09T11:11:07.523Z,98820.09
2023-05-09T11:13:38.349Z,98809.50
2023-05-09T11:16:09.312Z,98801.06
2023-05-09T11:18:55.612Z,98796.41
2023-05-09T11:21:22.237Z,98791.03
2023-05-09T11:23:49.720Z,98784.78
2023-05-09T11:26:22.219Z,98781.47
2023-05-09T11:28:54.405Z,98780.66
2023-05-09T11:31:21.163Z,98771.06
2023-05-09T11:33:55.112Z,98766.47
2023-05-09T11:36:33.689Z,98765.81
2023-05-09T11:39:03.081Z,98756.16
2023-05-09T11:41:39.291Z,98755.00
2023-05-09T11:44:14.445Z,98747.94
2023-05-09T11:46:41.040Z,98747.06
2023-05-09T11:49:09.540Z,98736.81
2023-05-09T11:51:38.098Z,98732.47
2023-05-09T11:54:07.475Z,98742.94
2023-05-09T11:56:36.223Z,98726.00
2023-05-09T11:59:02.770Z,98719.09
2023-05-09T12:01:30.632Z,98724.97
2023-05-09T12:03:59.331Z,98728.34
2023-05-09T12:06:27.174Z,98715.31
2023-05-09T12:09:00.012Z,98721.06
2023-05-09T12:11:32.236Z,98710.19
2023-05-09T12:14:01.272Z,98703.25
2023-05-09T12:16:28.809Z,98707.03
2023-05-09T12:18:55.348Z,98700.34
2023-05-09T12:21:22.241Z,98701.16
2023-05-09T12:23:51.787Z,98701.47
2023-05-09T12:26:22.604Z,98687.63
2023-05-09T12:28:50.706Z,98678.47
2023-05-09T12:31:25.523Z,98671.56
2023-05-09T12:33:52.294Z,98671.50
2023-05-09T12:36:25.952Z,98672.53
2023-05-09T12:38:55.251Z,98664.19
2023-05-09T12:41:37.029Z,98663.03
2023-05-09T12:44:06.237Z,98646.59
2023-05-09T12:46:40.112Z,98650.44
2023-05-09T12:49:22.313Z,98649.94
2023-05-09T12:51:50.502Z,98647.78
2023-05-09T12:54:29.714Z,98652.38
2023-05-09T12:56:59.589Z,98648.38
2023-05-09T12:59:28.929Z,98638.59
2023-05-09T13:02:00.018Z,98643.94
2023-05-09T13:04:28.981Z,98643.00
2023-05-09T13:06:59.831Z,98638.34
2023-05-09T13:09:27.889Z,98632.16
2023-05-09T13:11:54.480Z,98627.19
2023-05-09T13:14:23.273Z,98619.31
2023-05-09T13:16:51.042Z,98626.69
2023-05-09T13:19:17.482Z,98617.75
2023-05-09T13:21:44.014Z,98622.34
2023-05-09T13:24:10.511Z,98611.03
2023-05-09T13:26:37.109Z,98613.03
2023-05-09T13:29:03.644Z,98616.38
2023-05-09T13:31:31.596Z,98617.03
2023-05-09T13:33:58.555Z,98613.22
2023-05-09T13:36:25.569Z,98615.44
2023-05-09T13:38:52.068Z,98611.56
2023-05-09T13:41:23.590Z,98610.22
2023-05-09T13:43:51.200Z,98605.22
2023-05-09T13:46:17.748Z,98594.19
2023-05-09T13:48:44.818Z,98603.25
2023-05-09T13:51:11.450Z,98592.16
2023-05-09T13:53:39.245Z,98591.31
2023-05-09T13:56:09.447Z,98584.03
2023-05-09T13:58:36.371Z,98580.44
2023-05-09T14:01:03.158Z,98574.47
2023-05-09T14:03:29.787Z,98581.28
2023-05-09T14:05:58.766Z,98580.22
2023-05-09T14:08:27.011Z,98571.41
2023-05-09T14:10:53.589Z,98571.09
2023-05-09T14:13:21.985Z,98574.16
2023-05-09T14:15:51.995Z,98563.00
2023-05-09T14:18:20.755Z,98567.00
2023-05-09T14:20:47.861Z,98558.19
2023-05-09T14:23:14.401Z,98554.03
2023-05-09T14:25:40.932Z,98548.47
2023-05-09T14:28:09.249Z,98544.72
2023-05-09T14:30:36.758Z,98543.34
2023-05-09T14:33:03.269Z,98528.38
2023-05-09T14:35:32.732Z,98529.06
2023-05-09T14:38:01.268Z,98530.81
2023-05-09T14:40:32.051Z,98529.63
2023-05-09T14:43:03.279Z,98520.25
2023-05-09T14:45:32.721Z,98525.25
2023-05-09T14:48:00.396Z,98514.22
2023-05-09T14:50:26.917Z,98514.63
2023-05-09T14:52:54.195Z,98510.06
2023-05-09T14:55:24.373Z,98509.25
2023-05-09T14:57:51.710Z,98502.16
2023-05-09T15:00:21.851Z,98505.38
2023-05-09T15:02:51.330Z,98504.47
2023-05-09T15:05:25.048Z,98492.53
2023-05-09T15:07:53.099Z,98496.72
2023-05-09T15:10:19.987Z,98490.97
2023-05-09T15:12:52.452Z,98489.66
2023-05-09T15:15:24.123Z,98477.31
2023-05-09T15:17:53.520Z,98478.06
2023-05-09T15:20:20.933Z,98472.53
2023-05-09T15:22:53.033Z,98464.25
2023-05-09T15:25:20.466Z,98462.88
2023-05-09T15:27:46.955Z,98459.09
2023-05-09T15:30:14.352Z,98456.81
2023-05-09T15:32:42.125Z,98461.88
2023-05-09T15:35:09.371Z,98459.00
2023-05-09T15:37:36.588Z,98454.63
2023-05-09T15:40:11.544Z,98452.00
2023-05-09T15:42:39.052Z,98448.00
2023-05-09T15:45:06.803Z,98442.88
2023-05-09T15:47:33.511Z,98443.31
2023-05-09T15:50:00.085Z,98439.09
2023-05-09T15:52:27.686Z,98447.88
2023-05-09T15:54:56.304Z,98443.63
2023-05-09T15:57:23.137Z,98436.81
2023-05-09T15:59:49.703Z,98435.69
2023-05-09T16:02:16.219Z,98428.69
2023-05-09T16:04:44.332Z,98428.16
2023-05-09T16:07:11.485Z,98425.78
2023-05-09T16:09:38.241Z,98423.16
2023-05-09T16:12:05.478Z,98420.00
2023-05-09T16:14:32.027Z,98415.97
2023-05-09T16:16:58.750Z,98412.88
2023-05-09T16:19:25.511Z,98409.28
2023-05-09T16:21:52.693Z,98416.78
2023-05-09T16:24:20.047Z,98406.09
2023-05-09T16:26:46.854Z,98409.94
2023-05-09T16:29:13.893Z,98409.56
2023-05-09T16:31:40.939Z,98408.03
2023-05-09T16:34:08.034Z,98399.94
2023-05-09T16:36:37.132Z,98406.22
2023-05-09T16:39:03.751Z,98404.13
2023-05-09T16:41:32.904Z,98398.53
2023-05-09T16:44:04.114Z,98400.41
2023-05-09T16:46:31.469Z,98399.00
2023-05-09T16:48:57.906Z,98396.38
2023-05-09T16:51:24.569Z,98394.81
2023-05-09T16:53:51.165Z,98394.72
2023-05-09T16:56:17.891Z,98392.06
2023-05-09T16:58:45.165Z,98395.66
2023-05-09T17:01:12.021Z,98389.44
2023-05-09T17:03:43.554Z,98393.44
2023-05-09T17:06:10.304Z,98388.13
2023-05-09T17:08:36.851Z,98389.19
2023-05-09T17:11:11.179Z,98388.94
2023-05-09T17:13:42.643Z,98388.13
2023-05-09T17:16:09.198Z,98392.63
2023-05-09T17:18:37.934Z,98398.81
2023-05-09T17:21:06.498Z,98393.09
2023-05-09T17:23:32.949Z,98388.16
2023-05-09T17:25:59.559Z,98383.91
2023-05-09T17:28:25.988Z,98393.34
2023-05-09T17:30:52.595Z,98403.22
2023-05-09T17:33:19.307Z,98392.50
2023-05-09T17:35:49.314Z,98398.84
2023-05-09T17:38:15.772Z,98394.97
2023-05-09T17:40:42.290Z,98386.28
2023-05-09T17:43:08.976Z,98390.97
2023-05-09T17:45:35.906Z,98387.34
2023-05-09T17:48:02.920Z,98384.19
2023-05-09T17:50:29.592Z,98383.13
2023-05-09T17:52:57.012Z,98377.16
2023-05-09T17:55:23.616Z,98375.94
2023-05-09T17:57:50.132Z,98374.53
2023-05-09T18:00:17.263Z,98379.38
2023-05-09T18:02:45.047Z,98378.72
2023-05-09T18:05:11.597Z,98373.09
2023-05-09T18:07:40.036Z,98375.13
2023-05-09T18:10:08.749Z,98380.06
2023-05-09T18:12:37.214Z,98390.56
2023-05-09T18:15:05.811Z,98379.44
2023-05-09T18:17:32.390Z,98374.59
2023-05-09T18:19:58.783Z,98383.53
2023-05-09T18:22:25.526Z,98374.84
2023-05-09T18:24:53.010Z,98371.06
2023-05-09T18:27:19.508Z,98370.59
2023-05-09T18:29:47.423Z,98361.09
2023-05-09T18:32:14.482Z,98360.59
2023-05-09T18:34:41.573Z,98357.81
2023-05-09T18:37:10.040Z,98353.63
2023-05-09T18:39:36.630Z,98360.84
2023-05-09T18:42:03.228Z,98363.69
2023-05-09T18:44:30.035Z,98358.56
2023-05-09T18:46:57.848Z,98357.31
2023-05-09T18:49:26.191Z,98357.75
2023-05-09T18:51:53.322Z,98354.38
2023-05-09T18:54:19.815Z,98353.06
2023-05-09T18:56:46.710Z,98358.94
2023-05-09T18:59:16.124Z,98358.31
2023-05-09T19:01:43.958Z,98357.84
2023-05-09T19:04:10.889Z,98357.88
2023-05-09T19:06:37.715Z,98361.66
2023-05-09T19:09:04.736Z,98369.38
2023-05-09T19:11:31.610Z,98361.28
2023-05-09T19:13:58.300Z,98366.72
2023-05-09T19:16:26.497Z,98363.56
2023-05-09T19:18:57.370Z,98363.97
2023-05-09T19:21:25.616Z,98365.13
2023-05-09T19:23:53.238Z,98363.72
2023-05-09T19:26:21.847Z,98372.81
2023-05-09T19:28:48.864Z,98367.53
2023-05-09T19:31:16.580Z,98367.19
2023-05-09T19:33:45.849Z,98373.88
2023-05-09T19:36:13.694Z,98373.72
2023-05-09T19:38:40.663Z,98379.16
2023-05-09T19:41:07.573Z,98373.81
2023-05-09T19:43:34.486Z,98381.09
2023-05-09T19:46:01.241Z,98374.34
2023-05-09T19:48:28.172Z,98370.66
2023-05-09T19:50:58.650Z,98369.03
2023-05-09T19:53:25.692Z,98366.13
2023-05-09T19:55:52.998Z,98374.41
2023-05-09T19:58:20.025Z,98370.41
2023-05-09T20:00:46.850Z,98364.19
2023-05-09T20:03:13.706Z,98363.16
2023-05-09T20:05:40.492Z,98354.47
2023-05-09T20:08:07.585Z,98349.84
2023-05-09T20:10:34.374Z,98351.09
2023-05-09T20:13:01.254Z,98347.91
2023-05-09T20:15:28.124Z,98353.44
2023-05-09T20:17:54.902Z,98344.22
2023-05-09T20:20:21.755Z,98346.28
2023-05-09T20:22:48.613Z,98347.56
2023-05-09T20:25:15.407Z,98350.19
2023-05-09T20:27:42.020Z,98346.09
2023-05-09T20:30:09.275Z,98345.03
2023-05-09T20:32:35.844Z,98336.84
2023-05-09T20:35:02.775Z,98333.41
2023-05-09T20:37:29.312Z,98337.03
2023-05-09T20:39:55.873Z,98332.69
2023-05-09T20:42:23.188Z,98329.56
2023-05-09T20:44:51.393Z,98325.53
2023-05-09T20:47:17.945Z,98330.09
2023-05-09T20:49:44.506Z,98329.06
2023-05-09T20:52:11.103Z,98328.47
2023-05-09T20:54:37.714Z,98330.41
2023-05-09T20:57:04.205Z,98327.47
2023-05-09T20:59:30.835Z,98332.78
2023-05-09T21:01:57.425Z,98330.31
2023-05-09T21:04:24.155Z,98322.66
2023-05-09T21:06:50.629Z,98320.34
2023-05-09T21:09:17.367Z,98317.13
2023-05-09T21:11:43.856Z,98324.72
2023-05-09T21:14:10.388Z,98323.75
2023-05-09T21:16:37.388Z,98322.34
2023-05-09T21:19:05.148Z,98321.69
2023-05-09T21:21:33.787Z,98315.97
2023-05-09T21:24:04.118Z,98319.31
2023-05-09T21:26:30.826Z,98320.59
2023-05-09T21:28:57.308Z,98323.84
2023-05-09T21:31:23.917Z,98321.16
2023-05-09T21:33:50.452Z,98318.50
2023-05-09T21:36:16.918Z,98312.91
2023-05-09T21:38:43.402Z,98323.22
2023-05-09T21:41:10.165Z,98319.59
2023-05-09T21:43:37.408Z,98317.44
2023-05-09T21:46:05.918Z,98314.84
2023-05-09T21:48:32.762Z,98319.22
2023-05-09T21:51:03.880Z,98318.84
2023-05-09T21:53:30.417Z,98314.81
2023-05-09T21:55:56.924Z,98321.84
2023-05-09T21:58:23.439Z,98320.63
2023-05-09T22:00:50.076Z,98319.34
2023-05-09T22:03:16.744Z,98325.00
2023-05-09T22:05:43.463Z,98330.38
2023-05-09T22:08:09.986Z,98328.50
2023-05-09T22:10:37.576Z,98325.63
2023-05-09T22:13:04.145Z,98326.84
2023-05-09T22:15:30.946Z,98327.88
2023-05-09T22:17:57.458Z,98332.19
2023-05-09T22:20:24.229Z,98338.78
2023-05-09T22:22:50.730Z,98339.50
2023-05-09T22:25:17.608Z,98337.72
2023-05-09T22:27:44.069Z,98336.69
2023-05-09T22:30:12.397Z,98343.31
2023-05-09T22:32:39.645Z,98336.00
2023-05-09T22:35:06.890Z,98332.38
2023-05-09T22:37:33.461Z,98336.34
2023-05-09T22:40:01.485Z,98344.50
2023-05-09T22:42:29.303Z,98339.19
2023-05-09T22:44:55.924Z,98341.34
2023-05-09T22:47:22.382Z,98341.25
2023-05-09T22:49:50.517Z,98344.56
2023-05-09T22:52:17.379Z,98336.75
2023-05-09T22:54:44.103Z,98332.16
2023-05-09T22:57:11.040Z,98347.81
2023-05-09T22:59:37.662Z,98341.56
2023-05-09T23:02:04.788Z,98340.84
2023-05-09T23:04:31.305Z,98335.34
2023-05-09T23:06:57.758Z,98338.78
2023-05-09T23:09:24.295Z,98345.38
2023-05-09T23:11:51.467Z,98344.72
2023-05-09T23:14:18.141Z,98339.41
2023-05-09T23:16:45.643Z,98345.84
2023-05-09T23:19:12.154Z,98340.97
2023-05-09T23:21:38.622Z,98338.06
2023-05-09T23:24:05.498Z,98338.31
2023-05-09T23:26:32.839Z,98340.44
2023-05-09T23:28:59.305Z,98340.84
2023-05-09T23:31:25.938Z,98344.72
2023-05-09T23:33:52.361Z,98342.81
2023-05-09T23:36:18.986Z,98342.31
2023-05-09T23:38:45.509Z,98342.69
2023-05-09T23:41:12.809Z,98349.72
2023-05-09T23:43:39.432Z,98343.81
2023-05-09T23:46:05.994Z,98349.50
2023-05-09T23:48:32.504Z,98348.22
2023-05-09T23:50:59.070Z,98348.88
2023-05-09T23:53:26.111Z,98340.84
2023-05-09T23:55:52.617Z,98341.69
2023-05-09T23:58:19.056Z,98344.25
